Coarsegold, California
Current Conditions -  °F | °C
As of 12:53 PM on Friday 24 Oct 2014 (Local Time) from KMAE Reporting Station
Clear Clear  
Wind Chill: 78°   Ceiling: Unl
Heat Index: 78°   Visibility: 9mi
Dew Point: 47°   Wind: 6mph
Humidity: 33%   Direction: NA
Pressure: 29.94"   Gusts: NA
Location:  37.26°N, 119.7°W
Report Text: KMAE 241953Z AUTO VRB05KT 9SM CLR 26/08 A2994 RMK AO2 SLP135 T02560083 $
Loading
Personal Weather Stations






























Interactive Weather Map
Tropical Storm Tracking
New forecast layout! Learn more

10-Day Weather Forecast

Advertisements
Track Severe Weather on mobile